Time;durP1;ratioP1;P1;durP2;ratioP2;P2;SDS_P1;SDS_P2;PMS_P1;PMS_P2;Temp;Humidity;BMP_temperature;BMP_pressure;BME280_temperature;BME280_humidity;BME280_pressure;Samples;Min_cycle;Max_cycle;Signal;HPM_P1;HPM_P2
2021/01/23 12:54:56;;;;;;;5.80;1.08;;;;;;;;;;5107926;27;20777;-73
2021/01/23 12:57:22;;;;;;;3.95;1.35;;;;;;;;;;5109451;28;20023;-73
2021/01/23 12:59:48;;;;;;;4.65;1.20;;;;;;;;;;5109495;28;20012;-73
2021/01/23 13:02:15;;;;;;;2.95;1.33;;;;;;;;;;5108146;28;20476;-73
2021/01/23 13:04:41;;;;;;;2.70;1.42;;;;;;;;;;5106920;28;20028;-72
2021/01/23 13:07:08;;;;;;;8.07;3.70;;;;;;;;;;5109472;28;20028;-73
2021/01/23 13:09:34;;;;;;;17.42;9.73;;;;;;;;;;5107927;28;20032;-73
2021/01/23 13:12:00;;;;;;;3.78;1.35;;;;;;;;;;5109278;28;20032;-73
2021/01/23 13:14:26;;;;;;;1.98;1.05;;;;;;;;;;5108704;28;20032;-76
2021/01/23 13:16:52;;;;;;;2.08;1.25;;;;;;;;;;5091211;28;20526;-73
2021/01/23 13:19:18;;;;;;;3.05;1.27;;;;;;;;;;5089128;28;20024;-74
2021/01/23 13:21:44;;;;;;;2.78;1.48;;;;;;;;;;5088930;28;20094;-73
2021/01/23 13:24:10;;;;;;;1.63;1.08;;;;;;;;;;5108529;28;20476;-74
2021/01/23 13:26:36;;;;;;;3.72;1.30;;;;;;;;;;5107431;28;20020;-73
2021/01/23 13:29:03;;;;;;;3.25;0.90;;;;;;;;;;5107073;28;20660;-74
2021/01/23 13:31:30;;;;;;;4.07;0.80;;;;;;;;;;5107700;28;20028;-74
2021/01/23 13:33:56;;;;;;;4.03;0.68;;;;;;;;;;5090180;28;20443;-74
2021/01/23 13:36:22;;;;;;;2.20;1.13;;;;;;;;;;5088979;28;20024;-74
2021/01/23 13:38:48;;;;;;;5.05;2.30;;;;;;;;;;5088624;28;20020;-73
2021/01/23 13:41:14;;;;;;;6.45;3.65;;;;;;;;;;5088575;28;20520;-73
2021/01/23 13:43:40;;;;;;;6.40;3.17;;;;;;;;;;5102737;28;20455;-73
2021/01/23 13:46:06;;;;;;;3.65;2.00;;;;;;;;;;5107420;28;20039;-73
2021/01/23 13:48:32;;;;;;;5.13;3.22;;;;;;;;;;5093947;28;20033;-73
2021/01/23 13:50:58;;;;;;;4.65;2.67;;;;;;;;;;5088408;28;20089;-73
2021/01/23 13:53:24;;;;;;;6.35;3.65;;;;;;;;;;5087612;28;20119;-73
2021/01/23 13:55:50;;;;;;;5.00;2.10;;;;;;;;;;5086961;28;20016;-73
2021/01/23 13:58:16;;;;;;;5.47;2.30;;;;;;;;;;5088168;28;20112;-73
2021/01/23 14:00:42;;;;;;;5.20;2.50;;;;;;;;;;5087974;28;20016;-73
2021/01/23 14:03:08;;;;;;;4.50;2.00;;;;;;;;;;5087858;28;20370;-73
2021/01/23 14:05:34;;;;;;;4.10;1.75;;;;;;;;;;5078729;28;20044;-74
2021/01/23 14:08:00;;;;;;;6.85;1.98;;;;;;;;;;5073040;28;20043;-74
2021/01/23 14:10:26;;;;;;;2.90;1.65;;;;;;;;;;5073211;28;20054;-76
2021/01/23 14:12:52;;;;;;;4.70;2.00;;;;;;;;;;5073721;28;20039;-75
2021/01/23 14:15:21;;;;;;;3.42;2.40;;;;;;;;;;5084182;28;20038;-76
2021/01/23 14:17:47;;;;;;;5.70;2.92;;;;;;;;;;5115051;28;20023;-73
2021/01/23 14:20:13;;;;;;;5.40;2.40;;;;;;;;;;5108207;28;20016;-73
2021/01/23 14:22:39;;;;;;;4.32;3.08;;;;;;;;;;5093806;28;20354;-73
2021/01/23 14:25:06;;;;;;;5.40;2.97;;;;;;;;;;5094584;28;20078;-73
2021/01/23 14:27:31;;;;;;;10.07;3.60;;;;;;;;;;5094652;28;20028;-73
2021/01/23 14:29:57;;;;;;;5.22;2.53;;;;;;;;;;5094590;28;20365;-73
2021/01/23 14:32:23;;;;;;;5.45;2.78;;;;;;;;;;5093408;28;20020;-73
2021/01/23 14:34:49;;;;;;;4.28;2.65;;;;;;;;;;5092840;28;20395;-73
2021/01/23 14:37:19;;;;;;;4.75;2.40;;;;;;;;;;5077180;28;20047;-73
2021/01/23 14:39:46;;;;;;;5.28;3.20;;;;;;;;;;5073799;28;20027;-76
2021/01/23 14:42:15;;;;;;;3.03;1.58;;;;;;;;;;5072260;28;20021;-73
2021/01/23 14:44:41;;;;;;;3.95;1.55;;;;;;;;;;5073854;28;20031;-73
2021/01/23 14:47:07;;;;;;;4.18;1.50;;;;;;;;;;5072376;28;20017;-73
2021/01/23 14:49:33;;;;;;;4.97;1.05;;;;;;;;;;5072418;28;20633;-74
2021/01/23 14:51:59;;;;;;;5.47;1.80;;;;;;;;;;5080473;28;20034;-74
2021/01/23 14:54:25;;;;;;;3.67;2.10;;;;;;;;;;5091906;28;20036;-73
2021/01/23 14:56:51;;;;;;;6.75;4.93;;;;;;;;;;5093830;28;20536;-73
2021/01/23 14:59:17;;;;;;;4.53;2.78;;;;;;;;;;5093905;28;20020;-73
2021/01/23 15:01:43;;;;;;;4.88;1.92;;;;;;;;;;5093510;28;20024;-73
2021/01/23 15:04:09;;;;;;;4.40;2.28;;;;;;;;;;5092963;28;20035;-75
2021/01/23 15:06:37;;;;;;;9.27;4.38;;;;;;;;;;5093487;28;20508;-73
2021/01/23 15:09:03;;;;;;;5.90;3.20;;;;;;;;;;5088170;28;20111;-73
2021/01/23 15:11:29;;;;;;;6.10;2.60;;;;;;;;;;5073272;28;20472;-73
2021/01/23 15:13:55;;;;;;;3.53;2.13;;;;;;;;;;5072529;28;20060;-73
2021/01/23 15:16:21;;;;;;;3.90;2.08;;;;;;;;;;5072026;28;20023;-73
2021/01/23 15:18:47;;;;;;;6.90;2.00;;;;;;;;;;5072968;28;20024;-73
2021/01/23 15:21:14;;;;;;;4.90;2.00;;;;;;;;;;5072888;28;20025;-73
2021/01/23 15:23:40;;;;;;;3.08;1.67;;;;;;;;;;5071097;28;20103;-73
2021/01/23 15:26:06;;;;;;;7.22;2.05;;;;;;;;;;5079599;28;20111;-72
2021/01/23 15:28:32;;;;;;;4.38;2.28;;;;;;;;;;5071700;28;20052;-73
2021/01/23 15:30:58;;;;;;;7.18;2.00;;;;;;;;;;5085895;28;20071;-74
2021/01/23 15:33:24;;;;;;;4.38;2.00;;;;;;;;;;5093551;28;20400;-73
2021/01/23 15:35:50;;;;;;;6.57;2.35;;;;;;;;;;5093489;28;20075;-72
2021/01/23 15:38:16;;;;;;;5.88;1.92;;;;;;;;;;5092749;28;20055;-73
2021/01/23 15:40:42;;;;;;;4.38;2.33;;;;;;;;;;5092545;28;20397;-73
2021/01/23 15:43:08;;;;;;;3.50;2.00;;;;;;;;;;5092273;28;20416;-73
2021/01/23 15:45:34;;;;;;;3.65;1.92;;;;;;;;;;5079520;28;20034;-73
2021/01/23 15:48:00;;;;;;;5.07;2.00;;;;;;;;;;5092819;28;20024;-73
2021/01/23 15:50:26;;;;;;;5.38;2.00;;;;;;;;;;5092869;28;20026;-73
2021/01/23 15:52:53;;;;;;;3.97;1.77;;;;;;;;;;5091380;28;20024;-73
2021/01/23 15:55:19;;;;;;;5.57;1.77;;;;;;;;;;5092683;28;20107;-73
2021/01/23 15:57:45;;;;;;;4.95;2.20;;;;;;;;;;5092493;28;20419;-73
2021/01/23 16:00:11;;;;;;;4.10;2.15;;;;;;;;;;5090698;28;20457;-73
2021/01/23 16:02:37;;;;;;;5.00;2.80;;;;;;;;;;5091512;28;20400;-73
2021/01/23 16:05:04;;;;;;;8.88;3.75;;;;;;;;;;5091104;28;20035;-73
2021/01/23 16:07:30;;;;;;;7.20;2.95;;;;;;;;;;5092408;28;20054;-76
2021/01/23 16:09:56;;;;;;;5.47;2.03;;;;;;;;;;5092290;28;20481;-72
2021/01/23 16:12:23;;;;;;;5.57;1.95;;;;;;;;;;5091727;28;20034;-75
2021/01/23 16:14:49;;;;;;;4.00;2.47;;;;;;;;;;5091914;28;20050;-73
2021/01/23 16:17:15;;;;;;;6.40;3.05;;;;;;;;;;5084607;28;20025;-73
2021/01/23 16:19:41;;;;;;;7.05;2.20;;;;;;;;;;5071669;28;20024;-73
2021/01/23 16:22:07;;;;;;;6.90;3.53;;;;;;;;;;5070418;28;20393;-73
2021/01/23 16:24:33;;;;;;;7.82;3.72;;;;;;;;;;5081527;28;20030;-73
2021/01/23 16:26:59;;;;;;;9.73;3.90;;;;;;;;;;5092003;28;20047;-73
2021/01/23 16:29:26;;;;;;;5.05;2.85;;;;;;;;;;5091773;28;20395;-73
2021/01/23 16:31:52;;;;;;;4.20;2.45;;;;;;;;;;5091690;28;20028;-73
2021/01/23 16:34:18;;;;;;;5.22;2.58;;;;;;;;;;5088033;28;20032;-73
2021/01/23 16:36:44;;;;;;;4.25;2.70;;;;;;;;;;5088411;28;20058;-74
2021/01/23 16:39:10;;;;;;;4.97;2.90;;;;;;;;;;5079654;28;20013;-74
2021/01/23 16:41:37;;;;;;;4.20;2.47;;;;;;;;;;5082718;28;20476;-75
2021/01/23 16:44:03;;;;;;;5.25;3.08;;;;;;;;;;5083145;28;20028;-75
2021/01/23 16:46:30;;;;;;;4.43;2.72;;;;;;;;;;5105172;28;20036;-74
2021/01/23 16:48:56;;;;;;;4.65;2.78;;;;;;;;;;5111313;28;20380;-74
2021/01/23 16:51:22;;;;;;;6.55;2.65;;;;;;;;;;5094726;28;20055;-74
2021/01/23 16:53:48;;;;;;;5.47;3.30;;;;;;;;;;5089910;28;20035;-75
2021/01/23 16:56:14;;;;;;;8.70;3.65;;;;;;;;;;5091218;28;20024;-74
2021/01/23 16:58:40;;;;;;;6.38;3.00;;;;;;;;;;5091471;28;20016;-74
2021/01/23 17:01:06;;;;;;;4.25;2.85;;;;;;;;;;5089022;28;20020;-76
2021/01/23 17:03:32;;;;;;;5.63;2.70;;;;;;;;;;5090536;28;20030;-73
2021/01/23 17:05:58;;;;;;;5.88;3.33;;;;;;;;;;5080501;28;20037;-75
2021/01/23 17:08:28;;;;;;;5.68;3.42;;;;;;;;;;5070918;28;20036;-73
2021/01/23 17:10:54;;;;;;;8.13;3.33;;;;;;;;;;5084548;28;20511;-73
2021/01/23 17:13:20;;;;;;;10.05;3.25;;;;;;;;;;5089738;28;20551;-73
2021/01/23 17:15:48;;;;;;;5.72;3.08;;;;;;;;;;5091055;28;20016;-72
2021/01/23 17:18:14;;;;;;;10.73;3.15;;;;;;;;;;5090120;28;20051;-73
2021/01/23 17:20:40;;;;;;;5.22;3.20;;;;;;;;;;5090970;28;20060;-75
2021/01/23 17:23:06;;;;;;;6.30;3.25;;;;;;;;;;5090326;28;20043;-76
2021/01/23 17:25:34;;;;;;;8.15;4.63;;;;;;;;;;5085596;28;20078;-74
2021/01/23 17:28:00;;;;;;;6.50;3.17;;;;;;;;;;5070590;28;20055;-73
2021/01/23 17:30:26;;;;;;;5.32;3.10;;;;;;;;;;5070546;28;20462;-73
2021/01/23 17:32:52;;;;;;;7.43;4.45;;;;;;;;;;5069284;28;20067;-75
2021/01/23 17:35:18;;;;;;;6.82;3.25;;;;;;;;;;5070599;28;20031;-75
2021/01/23 17:37:44;;;;;;;5.07;3.20;;;;;;;;;;5070702;28;20498;-75
2021/01/23 17:40:11;;;;;;;8.52;4.03;;;;;;;;;;5072019;28;20074;-75
2021/01/23 17:42:37;;;;;;;4.72;3.35;;;;;;;;;;5075621;28;20543;-76
2021/01/23 17:45:03;;;;;;;4.82;3.10;;;;;;;;;;5077351;28;20040;-74
2021/01/23 17:47:29;;;;;;;4.35;3.17;;;;;;;;;;5097613;28;20031;-74
2021/01/23 17:49:55;;;;;;;10.38;6.15;;;;;;;;;;5093607;28;20032;-73
2021/01/23 17:52:21;;;;;;;5.65;3.80;;;;;;;;;;5079538;28;20158;-77
2021/01/23 17:54:47;;;;;;;6.28;3.85;;;;;;;;;;5077738;28;20480;-74
2021/01/23 17:57:13;;;;;;;4.80;3.28;;;;;;;;;;5080079;28;20083;-75
2021/01/23 17:59:45;;;;;;;4.20;3.35;;;;;;;;;;5079287;28;20028;-74
2021/01/23 18:02:11;;;;;;;8.80;5.47;;;;;;;;;;5094852;28;20039;-74
2021/01/23 18:04:37;;;;;;;4.65;3.42;;;;;;;;;;5093110;28;20054;-75
2021/01/23 18:07:03;;;;;;;5.40;3.45;;;;;;;;;;5094129;28;20032;-75
2021/01/23 18:09:29;;;;;;;5.63;3.75;;;;;;;;;;5094150;28;20454;-75
2021/01/23 18:11:55;;;;;;;8.35;4.30;;;;;;;;;;5094317;28;20032;-74
2021/01/23 18:14:21;;;;;;;8.60;4.78;;;;;;;;;;5093460;28;20096;-74
2021/01/23 18:16:47;;;;;;;7.65;5.32;;;;;;;;;;5094221;28;20024;-75
2021/01/23 18:19:13;;;;;;;10.00;5.53;;;;;;;;;;5092461;28;20032;-74
2021/01/23 18:21:39;;;;;;;8.80;5.53;;;;;;;;;;5093793;28;20404;-75
2021/01/23 18:24:05;;;;;;;10.40;6.05;;;;;;;;;;5088837;28;20035;-77
2021/01/23 18:26:31;;;;;;;13.60;7.78;;;;;;;;;;5073603;28;20036;-76
2021/01/23 18:28:57;;;;;;;8.70;5.80;;;;;;;;;;5073478;28;20028;-76
2021/01/23 18:31:23;;;;;;;9.13;6.32;;;;;;;;;;5075613;28;20036;-76
2021/01/23 18:33:49;;;;;;;10.00;6.30;;;;;;;;;;5082224;28;20508;-76
2021/01/23 18:36:15;;;;;;;9.35;6.38;;;;;;;;;;5083114;28;20033;-76
2021/01/23 18:38:41;;;;;;;11.77;7.18;;;;;;;;;;5081420;28;20020;-75
2021/01/23 18:41:07;;;;;;;10.85;6.20;;;;;;;;;;5085610;28;20017;-76
2021/01/23 18:43:33;;;;;;;11.85;6.53;;;;;;;;;;5081780;28;20128;-76
2021/01/23 18:45:59;;;;;;;10.32;6.30;;;;;;;;;;5083442;28;20028;-76
2021/01/23 18:48:25;;;;;;;11.80;5.72;;;;;;;;;;5083483;28;20036;-75
2021/01/23 18:50:51;;;;;;;13.40;6.40;;;;;;;;;;5083372;28;20051;-76
